Time;durP1;ratioP1;P1;durP2;ratioP2;P2;SDS_P1;SDS_P2;PMS_P1;PMS_P2;Temp;Humidity;BMP_temperature;BMP_pressure;BME280_temperature;BME280_humidity;BME280_pressure;Samples;Min_cycle;Max_cycle;Signal;HPM_P1;HPM_P2
2023/06/04 00:00:50;;;;;;;1.90;1.60;;;;;;;;;;6218705;28;20498;-69
2023/06/04 00:03:50;;;;;;;2.80;1.83;;;;;;;;;;6226607;28;20273;-71
2023/06/04 00:06:50;;;;;;;2.50;1.73;;;;;;;;;;6225428;28;24076;-72
2023/06/04 00:09:51;;;;;;;1.93;1.47;;;;;;;;;;6222868;28;20049;-71
2023/06/04 00:12:51;;;;;;;3.10;1.88;;;;;;;;;;6230540;28;20103;-72
2023/06/04 00:15:52;;;;;;;2.77;1.23;;;;;;;;;;6222138;28;20033;-72
2023/06/04 00:18:52;;;;;;;2.40;1.70;;;;;;;;;;6223747;28;20178;-72
2023/06/04 00:21:52;;;;;;;3.40;1.53;;;;;;;;;;6225740;28;20025;-71
2023/06/04 00:24:53;;;;;;;2.57;1.40;;;;;;;;;;6223952;28;20029;-71
2023/06/04 00:27:53;;;;;;;1.97;1.60;;;;;;;;;;6222000;28;20033;-71
2023/06/04 00:30:53;;;;;;;2.77;1.53;;;;;;;;;;6221432;28;20022;-72
2023/06/04 00:33:53;;;;;;;2.60;1.43;;;;;;;;;;6227523;28;20379;-70
2023/06/04 00:36:53;;;;;;;2.90;1.57;;;;;;;;;;6221973;28;20467;-71
2023/06/04 00:39:54;;;;;;;2.63;1.70;;;;;;;;;;6218596;28;20495;-70
2023/06/04 00:42:55;;;;;;;2.43;1.40;;;;;;;;;;6225421;28;20541;-73
2023/06/04 00:45:55;;;;;;;2.13;1.55;;;;;;;;;;6234949;28;20029;-71
2023/06/04 00:48:56;;;;;;;2.43;1.67;;;;;;;;;;6227344;28;20025;-71
2023/06/04 00:51:56;;;;;;;2.67;1.63;;;;;;;;;;6226109;28;20486;-71
2023/06/04 00:54:56;;;;;;;1.70;1.40;;;;;;;;;;6240654;28;20024;-71
2023/06/04 00:57:57;;;;;;;2.33;1.70;;;;;;;;;;6241624;28;20759;-70
2023/06/04 01:00:59;;;;;;;3.63;1.40;;;;;;;;;;6251507;28;20026;-71
2023/06/04 01:04:00;;;;;;;1.63;1.38;;;;;;;;;;6246288;28;20342;-73
2023/06/04 01:07:03;;;;;;;2.22;1.58;;;;;;;;;;6232987;28;20434;-71
2023/06/04 01:10:03;;;;;;;4.15;1.45;;;;;;;;;;6229552;28;20037;-71
2023/06/04 01:13:03;;;;;;;2.30;1.23;;;;;;;;;;6236059;28;20273;-72
2023/06/04 01:16:04;;;;;;;1.60;1.37;;;;;;;;;;6230559;28;20450;-71
2023/06/04 01:19:08;;;;;;;2.20;1.60;;;;;;;;;;6229632;28;20029;-72
2023/06/04 01:22:20;;;;;;;2.42;1.50;;;;;;;;;;6232166;28;20029;-70
2023/06/04 01:25:23;;;;;;;2.78;1.30;;;;;;;;;;6231048;28;20439;-70
2023/06/04 01:28:26;;;;;;;2.53;1.60;;;;;;;;;;6250519;28;20041;-70
2023/06/04 01:31:28;;;;;;;2.72;1.55;;;;;;;;;;6230290;28;20026;-73
2023/06/04 01:34:28;;;;;;;1.88;1.40;;;;;;;;;;6223856;28;20740;-71
2023/06/04 01:37:28;;;;;;;3.23;1.40;;;;;;;;;;6224543;28;20053;-71
2023/06/04 01:40:29;;;;;;;2.53;1.40;;;;;;;;;;6223728;28;20070;-71
2023/06/04 01:43:30;;;;;;;2.03;1.30;;;;;;;;;;6226443;28;20828;-71
2023/06/04 01:46:30;;;;;;;2.08;1.45;;;;;;;;;;6227395;28;20041;-71
2023/06/04 01:49:31;;;;;;;3.20;1.60;;;;;;;;;;6223371;28;20100;-71
2023/06/04 01:52:32;;;;;;;1.90;1.33;;;;;;;;;;6227432;28;20010;-72
2023/06/04 01:55:33;;;;;;;2.03;1.60;;;;;;;;;;6226734;28;20339;-72
2023/06/04 01:58:33;;;;;;;1.60;1.20;;;;;;;;;;6229163;28;20018;-71
2023/06/04 02:01:34;;;;;;;2.13;1.50;;;;;;;;;;6228452;28;20820;-71
2023/06/04 02:04:36;;;;;;;3.07;1.27;;;;;;;;;;6232906;28;20392;-71
2023/06/04 02:07:38;;;;;;;2.40;1.60;;;;;;;;;;6232548;28;20109;-72
2023/06/04 02:10:38;;;;;;;3.13;1.40;;;;;;;;;;6239061;28;20017;-71
2023/06/04 02:13:38;;;;;;;1.70;1.50;;;;;;;;;;6232541;28;20083;-71
2023/06/04 02:16:39;;;;;;;3.40;1.33;;;;;;;;;;6237722;28;20025;-71
2023/06/04 02:19:44;;;;;;;1.90;1.52;;;;;;;;;;6240869;28;20048;-70
2023/06/04 02:22:44;;;;;;;1.75;1.30;;;;;;;;;;6236508;28;20034;-72
2023/06/04 02:25:45;;;;;;;2.97;1.57;;;;;;;;;;6230585;28;20025;-71
2023/06/04 02:28:45;;;;;;;2.08;1.50;;;;;;;;;;6231944;28;20212;-71
2023/06/04 02:31:46;;;;;;;3.57;1.37;;;;;;;;;;6239337;28;20081;-71
2023/06/04 02:34:46;;;;;;;2.17;1.47;;;;;;;;;;6232796;28;20022;-71
2023/06/04 02:37:46;;;;;;;2.77;1.60;;;;;;;;;;6235445;28;20022;-71
2023/06/04 02:40:46;;;;;;;2.10;1.40;;;;;;;;;;6234809;28;20151;-70
2023/06/04 02:43:46;;;;;;;2.10;1.30;;;;;;;;;;6237504;28;20490;-71
2023/06/04 02:46:47;;;;;;;1.77;1.37;;;;;;;;;;6232137;28;20363;-71
2023/06/04 02:49:47;;;;;;;2.30;1.37;;;;;;;;;;6237924;28;20478;-70
2023/06/04 02:52:47;;;;;;;1.97;1.43;;;;;;;;;;6234121;28;20566;-72
2023/06/04 02:55:47;;;;;;;2.17;1.40;;;;;;;;;;6238460;28;20021;-72
2023/06/04 02:58:55;;;;;;;1.93;1.70;;;;;;;;;;6234356;28;20133;-72
2023/06/04 03:01:56;;;;;;;2.30;1.52;;;;;;;;;;6233897;28;20087;-72
2023/06/04 03:04:56;;;;;;;3.23;1.60;;;;;;;;;;6234309;28;20025;-73
2023/06/04 03:07:58;;;;;;;3.27;1.70;;;;;;;;;;6217744;28;20025;-71
2023/06/04 03:10:58;;;;;;;2.83;1.65;;;;;;;;;;6229854;28;20033;-70
2023/06/04 03:13:58;;;;;;;1.90;1.50;;;;;;;;;;6231871;28;20026;-71
2023/06/04 03:17:01;;;;;;;2.03;1.43;;;;;;;;;;6227415;28;20645;-71
2023/06/04 03:20:01;;;;;;;3.28;1.50;;;;;;;;;;6233262;28;20025;-71
2023/06/04 03:23:01;;;;;;;2.10;1.33;;;;;;;;;;6234801;28;20087;-73
2023/06/04 03:26:02;;;;;;;1.90;1.50;;;;;;;;;;6234326;28;20058;-71
2023/06/04 03:29:02;;;;;;;2.50;1.60;;;;;;;;;;6238135;28;20032;-70
2023/06/04 03:32:02;;;;;;;3.80;1.63;;;;;;;;;;6231174;28;20021;-71
2023/06/04 03:35:03;;;;;;;1.73;1.40;;;;;;;;;;6224290;28;20022;-71
2023/06/04 03:38:03;;;;;;;3.07;1.70;;;;;;;;;;6218746;28;20036;-70
2023/06/04 03:41:03;;;;;;;1.90;1.43;;;;;;;;;;6225825;28;20278;-69
2023/06/04 03:44:03;;;;;;;2.83;1.47;;;;;;;;;;6218679;28;20029;-72
2023/06/04 03:47:04;;;;;;;1.90;1.50;;;;;;;;;;6220236;28;20048;-72
2023/06/04 03:50:04;;;;;;;3.63;1.60;;;;;;;;;;6223538;28;20029;-71
2023/06/04 03:53:05;;;;;;;3.00;1.63;;;;;;;;;;6222042;28;20025;-74
2023/06/04 03:56:05;;;;;;;2.20;1.43;;;;;;;;;;6228930;28;20030;-71
2023/06/04 03:59:05;;;;;;;6.53;1.67;;;;;;;;;;6219772;28;20041;-70
2023/06/04 04:02:06;;;;;;;2.77;1.63;;;;;;;;;;6219965;28;20033;-70
2023/06/04 04:05:06;;;;;;;2.93;1.50;;;;;;;;;;6225052;28;20202;-71
2023/06/04 04:08:08;;;;;;;3.90;1.48;;;;;;;;;;6217225;28;20566;-71
2023/06/04 04:11:09;;;;;;;2.38;1.73;;;;;;;;;;6218703;28;20056;-70
2023/06/04 04:14:09;;;;;;;3.67;1.73;;;;;;;;;;6223212;28;20021;-71
2023/06/04 04:17:09;;;;;;;2.57;1.60;;;;;;;;;;6223892;28;20025;-73
2023/06/04 04:20:10;;;;;;;1.60;1.40;;;;;;;;;;6217278;28;20049;-73
2023/06/04 04:23:10;;;;;;;5.57;1.63;;;;;;;;;;6222324;28;20091;-72
2023/06/04 04:26:11;;;;;;;1.50;1.40;;;;;;;;;;6219902;28;20866;-71
2023/06/04 04:29:12;;;;;;;2.95;1.70;;;;;;;;;;6219446;28;20453;-70
2023/06/04 04:32:12;;;;;;;3.85;2.08;;;;;;;;;;6229519;28;20026;-70
2023/06/04 04:35:12;;;;;;;8.13;2.20;;;;;;;;;;6235055;28;20013;-69
2023/06/04 04:38:12;;;;;;;2.07;1.53;;;;;;;;;;6239364;28;20033;-69
2023/06/04 04:41:13;;;;;;;2.50;1.47;;;;;;;;;;6236588;28;20017;-69
2023/06/04 04:44:13;;;;;;;2.80;2.03;;;;;;;;;;6222495;28;20026;-70
2023/06/04 04:47:14;;;;;;;3.30;1.83;;;;;;;;;;6222166;28;20045;-71
2023/06/04 04:50:14;;;;;;;2.42;1.38;;;;;;;;;;6224090;28;20147;-71
2023/06/04 04:53:14;;;;;;;3.00;1.70;;;;;;;;;;6223333;28;20033;-70
2023/06/04 04:56:15;;;;;;;4.33;1.70;;;;;;;;;;6221526;28;20025;-72
2023/06/04 04:59:15;;;;;;;5.47;1.80;;;;;;;;;;6225030;28;20022;-70
2023/06/04 05:02:15;;;;;;;2.40;1.60;;;;;;;;;;6216966;28;20434;-70
2023/06/04 05:05:16;;;;;;;5.28;1.98;;;;;;;;;;6222651;28;20506;-70
2023/06/04 05:08:16;;;;;;;5.97;2.50;;;;;;;;;;6219612;28;20060;-69
2023/06/04 05:11:16;;;;;;;3.53;2.00;;;;;;;;;;6226166;28;20448;-71
2023/06/04 05:14:17;;;;;;;2.10;1.83;;;;;;;;;;6225594;28;20014;-71
2023/06/04 05:17:21;;;;;;;2.00;1.42;;;;;;;;;;6221695;28;20017;-70
2023/06/04 05:20:22;;;;;;;4.72;2.38;;;;;;;;;;6222025;28;20025;-71
2023/06/04 05:23:22;;;;;;;2.42;1.98;;;;;;;;;;6222051;28;20239;-71
2023/06/04 05:26:25;;;;;;;4.90;1.93;;;;;;;;;;6219649;28;20037;-72
2023/06/04 05:29:25;;;;;;;3.35;1.83;;;;;;;;;;6215523;28;20151;-72
2023/06/04 05:32:28;;;;;;;2.30;1.77;;;;;;;;;;6218620;28;20032;-71
2023/06/04 05:35:28;;;;;;;1.45;1.35;;;;;;;;;;6220697;28;20025;-72
2023/06/04 05:38:30;;;;;;;1.80;1.53;;;;;;;;;;6225458;28;20490;-72
2023/06/04 05:41:30;;;;;;;3.90;1.63;;;;;;;;;;6219940;28;20471;-71
2023/06/04 05:44:31;;;;;;;3.47;1.60;;;;;;;;;;6216675;28;20425;-69
2023/06/04 05:47:31;;;;;;;6.20;1.70;;;;;;;;;;6225950;28;20066;-69
2023/06/04 05:50:31;;;;;;;2.20;1.80;;;;;;;;;;6223983;28;20033;-71
2023/06/04 05:53:32;;;;;;;2.23;1.70;;;;;;;;;;6218208;28;20068;-71
2023/06/04 05:56:32;;;;;;;4.38;1.75;;;;;;;;;;6221842;28;20033;-71
2023/06/04 05:59:33;;;;;;;2.70;2.00;;;;;;;;;;6235916;28;20025;-71
2023/06/04 06:02:34;;;;;;;2.83;1.90;;;;;;;;;;6235409;28;20431;-72
2023/06/04 06:05:34;;;;;;;2.50;1.73;;;;;;;;;;6228171;28;20500;-71
2023/06/04 06:08:35;;;;;;;3.03;1.70;;;;;;;;;;6240451;28;20449;-72
2023/06/04 06:11:35;;;;;;;2.43;1.60;;;;;;;;;;6238684;28;20025;-73
2023/06/04 06:14:36;;;;;;;2.15;1.70;;;;;;;;;;6231196;28;20018;-72
2023/06/04 06:17:37;;;;;;;;;;;;;;;;;;6238823;28;20491;-72
2023/06/04 06:20:37;;;;;;;3.23;1.60;;;;;;;;;;6235634;28;20375;-71
2023/06/04 06:23:37;;;;;;;;;;;;;;;;;;6228166;28;20026;-70
2023/06/04 06:26:37;;;;;;;2.53;1.63;;;;;;;;;;6232575;28;19909;-71
2023/06/04 06:29:39;;;;;;;3.27;2.03;;;;;;;;;;6237528;28;20024;-71
2023/06/04 06:32:39;;;;;;;2.70;1.80;;;;;;;;;;6227272;28;20067;-71
2023/06/04 06:35:39;;;;;;;5.67;1.93;;;;;;;;;;6234728;28;20645;-70
2023/06/04 06:38:40;;;;;;;2.65;2.33;;;;;;;;;;6230172;28;20026;-72
2023/06/04 06:41:40;;;;;;;;;;;;;;;;;;6235442;28;20032;-71
2023/06/04 06:44:40;;;;;;;3.55;2.10;;;;;;;;;;6219834;28;19913;-72
2023/06/04 06:47:41;;;;;;;;;;;;;;;;;;6245605;28;20021;-71
2023/06/04 06:50:41;;;;;;;3.60;2.00;;;;;;;;;;6214224;28;19917;-70
2023/06/04 06:53:41;;;;;;;3.20;2.27;;;;;;;;;;6220514;28;20485;-73
2023/06/04 06:56:41;;;;;;;;;;;;;;;;;;6238996;28;20017;-71
2023/06/04 06:59:42;;;;;;;5.03;2.28;;;;;;;;;;6224907;28;19916;-71
2023/06/04 07:02:42;;;;;;;;;;;;;;;;;;6220662;28;20121;-71
2023/06/04 07:05:42;;;;;;;3.35;2.25;;;;;;;;;;6215116;28;19909;-72
2023/06/04 07:08:42;;;;;;;;;;;;;;;;;;6222358;28;20447;-73
2023/06/04 07:11:42;;;;;;;2.80;2.13;;;;;;;;;;6226323;28;19913;-71
2023/06/04 07:14:42;;;;;;;;;;;;;;;;;;6226212;28;20014;-71
2023/06/04 07:17:43;;;;;;;2.60;2.10;;;;;;;;;;6229233;28;19909;-73
2023/06/04 07:20:43;;;;;;;;;;;;;;;;;;6223316;28;20029;-72
2023/06/04 07:23:45;;;;;;;2.55;1.77;;;;;;;;;;6218904;28;19924;-72
2023/06/04 07:26:45;;;;;;;2.60;2.10;;;;;;;;;;6228814;28;20386;-73
2023/06/04 07:29:45;;;;;;;;;;;;;;;;;;6233327;28;20014;-73
2023/06/04 07:32:47;;;;;;;2.65;1.80;;;;;;;;;;6230920;28;19913;-73
2023/06/04 07:35:47;;;;;;;3.63;2.42;;;;;;;;;;6231496;28;20375;-72
2023/06/04 07:38:47;;;;;;;2.40;2.20;;;;;;;;;;6230735;28;20018;-73
2023/06/04 07:41:47;;;;;;;3.60;2.23;;;;;;;;;;6220760;28;20152;-71
2023/06/04 07:44:48;;;;;;;5.80;2.03;;;;;;;;;;6215063;28;20429;-73
2023/06/04 07:47:48;;;;;;;3.03;2.20;;;;;;;;;;6225722;28;20480;-73
2023/06/04 07:50:48;;;;;;;4.53;2.00;;;;;;;;;;6237657;28;20307;-73
2023/06/04 07:53:49;;;;;;;3.07;2.27;;;;;;;;;;6229631;28;20360;-73
2023/06/04 07:56:49;;;;;;;3.22;1.98;;;;;;;;;;6235847;28;20412;-73
2023/06/04 07:59:49;;;;;;;2.35;2.15;;;;;;;;;;6229066;28;20022;-72
2023/06/04 08:02:50;;;;;;;3.42;2.42;;;;;;;;;;6230434;28;20036;-73
2023/06/04 08:05:50;;;;;;;4.78;2.42;;;;;;;;;;6227852;28;20051;-75
2023/06/04 08:08:51;;;;;;;4.80;2.10;;;;;;;;;;6224765;28;20021;-73
2023/06/04 08:11:51;;;;;;;3.93;2.40;;;;;;;;;;6225811;28;20300;-71
2023/06/04 08:14:51;;;;;;;3.40;2.45;;;;;;;;;;6221124;28;20014;-73
2023/06/04 08:17:51;;;;;;;2.38;2.08;;;;;;;;;;6219774;28;20395;-70
2023/06/04 08:20:52;;;;;;;4.33;2.57;;;;;;;;;;6222203;28;20029;-71
2023/06/04 08:23:52;;;;;;;3.17;2.40;;;;;;;;;;6224376;28;20326;-73
2023/06/04 08:26:53;;;;;;;2.63;2.38;;;;;;;;;;6220115;28;20298;-73
2023/06/04 08:29:53;;;;;;;3.00;2.28;;;;;;;;;;6227755;28;20505;-71
2023/06/04 08:32:53;;;;;;;4.10;2.65;;;;;;;;;;6226683;28;20040;-73
2023/06/04 08:35:53;;;;;;;2.67;2.47;;;;;;;;;;6226306;28;20112;-71
2023/06/04 08:38:54;;;;;;;2.63;2.37;;;;;;;;;;6219898;28;20291;-72
2023/06/04 08:41:59;;;;;;;3.22;2.70;;;;;;;;;;6220718;28;20287;-72
2023/06/04 08:45:00;;;;;;;6.60;2.40;;;;;;;;;;6224637;28;20167;-72
2023/06/04 08:48:00;;;;;;;3.40;2.58;;;;;;;;;;6222050;28;20068;-72
2023/06/04 08:51:01;;;;;;;2.45;2.20;;;;;;;;;;6220277;28;20137;-71
2023/06/04 08:54:03;;;;;;;3.53;2.30;;;;;;;;;;6221373;28;20018;-72
2023/06/04 08:57:04;;;;;;;2.83;2.42;;;;;;;;;;6219826;28;20058;-70
2023/06/04 09:00:07;;;;;;;2.55;2.30;;;;;;;;;;6222576;28;20079;-72
2023/06/04 09:03:07;;;;;;;2.78;2.30;;;;;;;;;;6221754;28;20021;-71
2023/06/04 09:06:08;;;;;;;3.10;2.45;;;;;;;;;;6224035;28;20029;-73
2023/06/04 09:09:09;;;;;;;3.10;2.10;;;;;;;;;;6216666;28;20022;-71
2023/06/04 09:12:11;;;;;;;1.98;1.85;;;;;;;;;;6215737;28;20025;-72
2023/06/04 09:15:12;;;;;;;2.95;1.98;;;;;;;;;;6220618;28;20025;-72
2023/06/04 09:18:12;;;;;;;3.42;2.17;;;;;;;;;;6225141;28;20426;-72
2023/06/04 09:21:12;;;;;;;2.30;2.03;;;;;;;;;;6222025;28;20029;-72
2023/06/04 09:24:12;;;;;;;2.43;2.20;;;;;;;;;;6223797;28;20036;-73
2023/06/04 09:27:17;;;;;;;2.47;1.83;;;;;;;;;;6217102;28;20053;-70
2023/06/04 09:30:17;;;;;;;2.95;2.13;;;;;;;;;;6220848;28;20276;-72
2023/06/04 09:33:17;;;;;;;5.45;2.40;;;;;;;;;;6232295;28;20033;-70
2023/06/04 09:36:18;;;;;;;2.67;2.40;;;;;;;;;;6218884;28;20103;-68
2023/06/04 09:39:18;;;;;;;3.20;2.90;;;;;;;;;;6217360;28;20371;-70
2023/06/04 09:42:18;;;;;;;3.08;1.92;;;;;;;;;;6221689;28;20386;-69
2023/06/04 09:45:32;;;;;;;4.40;2.10;;;;;;;;;;6220792;28;20030;-73
2023/06/04 09:48:32;;;;;;;4.30;2.30;;;;;;;;;;6222307;28;20603;-70
2023/06/04 09:51:32;;;;;;;2.47;2.00;;;;;;;;;;6220336;28;22388;-69
2023/06/04 09:54:42;;;;;;;2.78;2.03;;;;;;;;;;6220680;28;20037;-71
2023/06/04 09:57:44;;;;;;;3.50;1.77;;;;;;;;;;6218920;28;20041;-71
2023/06/04 10:00:44;;;;;;;3.97;2.50;;;;;;;;;;6222508;28;20036;-73
2023/06/04 10:03:47;;;;;;;4.43;2.35;;;;;;;;;;6221333;28;20025;-75
2023/06/04 10:06:48;;;;;;;2.17;1.98;;;;;;;;;;6242345;28;20366;-74
2023/06/04 10:09:49;;;;;;;3.03;2.10;;;;;;;;;;6219469;28;20092;-76
2023/06/04 10:12:50;;;;;;;2.95;2.17;;;;;;;;;;6218766;28;20025;-74
2023/06/04 10:15:50;;;;;;;3.58;2.30;;;;;;;;;;6225542;28;20073;-75
2023/06/04 10:18:52;;;;;;;2.65;2.13;;;;;;;;;;6218458;28;20080;-77
2023/06/04 10:21:52;;;;;;;2.15;1.83;;;;;;;;;;6215739;28;20426;-74
2023/06/04 10:24:52;;;;;;;1.90;1.77;;;;;;;;;;6216428;28;20051;-72
2023/06/04 10:27:53;;;;;;;8.93;2.27;;;;;;;;;;6220712;28;20867;-73
2023/06/04 10:30:53;;;;;;;2.30;2.10;;;;;;;;;;6220885;28;20099;-74
2023/06/04 10:33:54;;;;;;;1.97;1.83;;;;;;;;;;6217137;28;20087;-74
2023/06/04 10:36:54;;;;;;;3.75;2.47;;;;;;;;;;6214844;28;20094;-75
2023/06/04 10:39:59;;;;;;;2.22;1.98;;;;;;;;;;6226709;28;20029;-74
2023/06/04 10:43:04;;;;;;;2.25;2.05;;;;;;;;;;6225779;28;20046;-74
2023/06/04 10:46:11;;;;;;;2.63;2.00;;;;;;;;;;6226857;28;20112;-75
2023/06/04 10:49:15;;;;;;;3.33;2.08;;;;;;;;;;6218723;28;20037;-75
2023/06/04 10:52:15;;;;;;;2.38;1.98;;;;;;;;;;6219084;28;20029;-73
2023/06/04 10:55:15;;;;;;;2.60;2.30;;;;;;;;;;6219127;28;20021;-74
2023/06/04 10:58:16;;;;;;;9.77;8.77;;;;;;;;;;6222500;28;20479;-72
2023/06/04 11:01:23;;;;;;;22.95;20.60;;;;;;;;;;6220592;28;20467;-72
2023/06/04 11:04:24;;;;;;;41.53;37.65;;;;;;;;;;6218090;28;20067;-73
2023/06/04 11:07:24;;;;;;;13.68;12.20;;;;;;;;;;6222477;28;20025;-74
2023/06/04 11:10:31;;;;;;;5.95;5.38;;;;;;;;;;6220121;28;20030;-74
2023/06/04 11:13:31;;;;;;;3.60;3.22;;;;;;;;;;6220879;28;20030;-73
2023/06/04 11:16:32;;;;;;;5.27;2.70;;;;;;;;;;6221799;28;20026;-77
2023/06/04 11:19:35;;;;;;;2.27;2.07;;;;;;;;;;6226013;28;20524;-73
2023/06/04 11:22:36;;;;;;;2.30;1.98;;;;;;;;;;6227788;28;20029;-71
2023/06/04 11:25:36;;;;;;;2.50;1.90;;;;;;;;;;6224498;28;20040;-72
2023/06/04 11:28:36;;;;;;;1.97;1.70;;;;;;;;;;6222970;28;20087;-73
2023/06/04 11:31:47;;;;;;;2.75;2.05;;;;;;;;;;6217710;28;20284;-74
2023/06/04 11:34:47;;;;;;;2.28;1.95;;;;;;;;;;6213561;28;20032;-71
2023/06/04 11:37:54;;;;;;;3.90;2.53;;;;;;;;;;6216772;28;20454;-73
2023/06/04 11:41:02;;;;;;;2.88;2.22;;;;;;;;;;6212646;28;20543;-75
2023/06/04 11:44:04;;;;;;;2.95;2.10;;;;;;;;;;6214149;28;20203;-74
2023/06/04 11:47:06;;;;;;;2.58;1.88;;;;;;;;;;6226330;28;20033;-73
2023/06/04 11:50:08;;;;;;;2.78;1.63;;;;;;;;;;6221814;28;20467;-72
2023/06/04 11:53:09;;;;;;;2.65;1.70;;;;;;;;;;6221117;28;20112;-72
2023/06/04 11:56:11;;;;;;;3.13;1.73;;;;;;;;;;6212810;28;20060;-76
2023/06/04 11:59:15;;;;;;;3.55;1.92;;;;;;;;;;6221303;28;20025;-75
2023/06/04 12:02:15;;;;;;;2.97;1.67;;;;;;;;;;6217959;28;20114;-74
2023/06/04 12:05:18;;;;;;;2.17;1.60;;;;;;;;;;6221738;28;20124;-73
2023/06/04 12:08:18;;;;;;;3.38;1.85;;;;;;;;;;6223842;28;20025;-74
2023/06/04 12:11:34;;;;;;;2.03;1.80;;;;;;;;;;6218643;28;20061;-73
2023/06/04 12:14:34;;;;;;;2.00;1.80;;;;;;;;;;6218624;28;20461;-72
2023/06/04 12:17:35;;;;;;;1.67;1.50;;;;;;;;;;6215484;28;20033;-71
2023/06/04 12:20:36;;;;;;;5.30;1.70;;;;;;;;;;6216899;28;20504;-73
2023/06/04 12:23:37;;;;;;;1.60;1.50;;;;;;;;;;6214917;28;20029;-73
2023/06/04 12:26:40;;;;;;;2.33;1.80;;;;;;;;;;6221633;28;20377;-72
2023/06/04 12:29:40;;;;;;;2.40;1.92;;;;;;;;;;6226171;28;20028;-71
2023/06/04 12:32:42;;;;;;;3.87;2.33;;;;;;;;;;6212769;28;20490;-70
2023/06/04 12:35:42;;;;;;;2.78;2.00;;;;;;;;;;6216939;28;20025;-71
2023/06/04 12:38:42;;;;;;;2.33;2.00;;;;;;;;;;6216942;28;20034;-74
2023/06/04 12:41:45;;;;;;;2.10;1.90;;;;;;;;;;6213914;28;20587;-72
2023/06/04 12:44:45;;;;;;;3.17;1.55;;;;;;;;;;6219368;28;20882;-73
2023/06/04 12:47:47;;;;;;;1.80;1.70;;;;;;;;;;6217833;28;20469;-73
2023/06/04 12:50:47;;;;;;;2.40;2.17;;;;;;;;;;6221035;28;20029;-72
2023/06/04 12:53:48;;;;;;;2.53;1.70;;;;;;;;;;6225206;28;20182;-73
2023/06/04 12:56:48;;;;;;;4.10;2.00;;;;;;;;;;6220091;28;20025;-71
2023/06/04 12:59:48;;;;;;;3.17;2.00;;;;;;;;;;6218854;28;20060;-72
2023/06/04 13:02:48;;;;;;;2.50;1.73;;;;;;;;;;6225949;28;20622;-73
2023/06/04 13:05:51;;;;;;;4.23;1.67;;;;;;;;;;6233998;28;20293;-74
2023/06/04 13:08:51;;;;;;;1.92;1.48;;;;;;;;;;6242277;28;20443;-74
2023/06/04 13:11:51;;;;;;;3.10;1.75;;;;;;;;;;6219368;28;20349;-70
2023/06/04 13:14:52;;;;;;;4.10;2.00;;;;;;;;;;6220304;28;20385;-72
2023/06/04 13:17:52;;;;;;;2.13;1.83;;;;;;;;;;6222165;28;20567;-70
2023/06/04 13:20:52;;;;;;;3.70;1.67;;;;;;;;;;6224602;28;20021;-71
2023/06/04 13:23:52;;;;;;;3.07;1.90;;;;;;;;;;6227728;28;20060;-72
2023/06/04 13:26:53;;;;;;;1.90;1.77;;;;;;;;;;6222708;28;20018;-68
2023/06/04 13:29:53;;;;;;;2.30;1.83;;;;;;;;;;6220411;28;20594;-70
2023/06/04 13:32:53;;;;;;;2.87;2.20;;;;;;;;;;6226065;28;20300;-70
2023/06/04 13:35:54;;;;;;;4.20;1.80;;;;;;;;;;6217107;28;20030;-71
2023/06/04 13:38:54;;;;;;;2.83;2.00;;;;;;;;;;6220008;28;20052;-72
2023/06/04 13:41:55;;;;;;;1.88;1.77;;;;;;;;;;6228513;28;20312;-72
2023/06/04 13:44:55;;;;;;;6.47;2.37;;;;;;;;;;6238308;28;20056;-70
2023/06/04 13:47:58;;;;;;;3.55;2.05;;;;;;;;;;6220681;28;20056;-71
2023/06/04 13:50:58;;;;;;;3.17;1.88;;;;;;;;;;6219546;28;20431;-72
2023/06/04 13:53:59;;;;;;;3.43;2.30;;;;;;;;;;6227740;28;20091;-71
2023/06/04 13:57:02;;;;;;;2.67;2.17;;;;;;;;;;6217191;28;20835;-72
2023/06/04 14:00:02;;;;;;;3.00;1.95;;;;;;;;;;6233000;28;20160;-73
2023/06/04 14:03:03;;;;;;;3.28;1.98;;;;;;;;;;6230891;28;20068;-74
2023/06/04 14:06:03;;;;;;;2.92;1.85;;;;;;;;;;6227627;28;20853;-74
2023/06/04 14:09:05;;;;;;;2.23;1.83;;;;;;;;;;6233231;28;20479;-74
2023/06/04 14:12:05;;;;;;;2.13;1.80;;;;;;;;;;6230345;28;20033;-73
2023/06/04 14:15:06;;;;;;;2.22;2.03;;;;;;;;;;6235660;28;20107;-74
2023/06/04 14:18:07;;;;;;;5.25;2.30;;;;;;;;;;6224619;28;20026;-74
2023/06/04 14:21:08;;;;;;;2.90;1.80;;;;;;;;;;6226428;28;20017;-73
2023/06/04 14:24:08;;;;;;;2.25;1.90;;;;;;;;;;6218573;28;20409;-74
2023/06/04 14:27:08;;;;;;;2.70;2.10;;;;;;;;;;6237018;28;20483;-72
2023/06/04 14:30:09;;;;;;;3.13;2.35;;;;;;;;;;6232919;28;20052;-74
2023/06/04 14:33:09;;;;;;;2.78;2.05;;;;;;;;;;6230321;28;20033;-72
2023/06/04 14:36:10;;;;;;;2.33;2.03;;;;;;;;;;6222764;28;20021;-74
2023/06/04 14:39:10;;;;;;;2.65;2.15;;;;;;;;;;6220289;28;20163;-74
2023/06/04 14:42:11;;;;;;;2.08;1.88;;;;;;;;;;6230371;28;20052;-73
2023/06/04 14:45:11;;;;;;;3.13;2.20;;;;;;;;;;6234502;28;20475;-74
2023/06/04 14:48:11;;;;;;;1.93;1.83;;;;;;;;;;6232636;28;20048;-75
2023/06/04 14:51:11;;;;;;;2.10;1.80;;;;;;;;;;6236754;28;20036;-75
2023/06/04 14:54:12;;;;;;;2.30;1.90;;;;;;;;;;6237208;28;20311;-74
2023/06/04 14:57:14;;;;;;;2.60;1.70;;;;;;;;;;6223882;28;20589;-73
2023/06/04 15:00:14;;;;;;;2.80;1.85;;;;;;;;;;6223432;28;20344;-73
2023/06/04 15:03:14;;;;;;;2.03;1.83;;;;;;;;;;6229741;28;20068;-74
2023/06/04 15:06:15;;;;;;;3.10;2.10;;;;;;;;;;6237075;28;20438;-75
2023/06/04 15:09:16;;;;;;;4.03;1.90;;;;;;;;;;6240530;28;20295;-74
2023/06/04 15:12:18;;;;;;;2.70;2.03;;;;;;;;;;6228181;28;20124;-74
2023/06/04 15:15:18;;;;;;;3.15;1.95;;;;;;;;;;6224500;28;20406;-73
2023/06/04 15:18:20;;;;;;;2.00;1.90;;;;;;;;;;6230475;28;20022;-72
2023/06/04 15:21:21;;;;;;;2.58;2.08;;;;;;;;;;6225923;28;20277;-74
2023/06/04 15:24:21;;;;;;;4.50;1.73;;;;;;;;;;6222218;28;20360;-72
2023/06/04 15:27:21;;;;;;;3.30;1.77;;;;;;;;;;6221877;28;20227;-72
2023/06/04 15:30:22;;;;;;;4.07;1.87;;;;;;;;;;6226180;28;20528;-72
2023/06/04 15:33:22;;;;;;;3.22;2.15;;;;;;;;;;6218656;28;20332;-75
2023/06/04 15:36:23;;;;;;;2.00;1.90;;;;;;;;;;6222905;28;20034;-74
2023/06/04 15:39:23;;;;;;;2.13;1.93;;;;;;;;;;6226024;28;20359;-74
2023/06/04 15:42:23;;;;;;;3.83;2.17;;;;;;;;;;6226573;28;20267;-73
2023/06/04 15:45:24;;;;;;;2.55;1.80;;;;;;;;;;6228278;28;20025;-75
2023/06/04 15:48:27;;;;;;;2.70;2.25;;;;;;;;;;6235345;28;20034;-74
2023/06/04 15:51:27;;;;;;;4.25;2.22;;;;;;;;;;6235128;28;20032;-73
2023/06/04 15:54:27;;;;;;;3.78;2.20;;;;;;;;;;6246035;28;20044;-73
2023/06/04 15:57:28;;;;;;;3.67;2.13;;;;;;;;;;6243717;28;20033;-73
2023/06/04 16:00:28;;;;;;;2.97;2.20;;;;;;;;;;6224350;28;20422;-71
2023/06/04 16:03:28;;;;;;;2.33;2.10;;;;;;;;;;6218386;28;20060;-74
2023/06/04 16:06:28;;;;;;;5.17;2.00;;;;;;;;;;6219881;28;20280;-72
2023/06/04 16:09:28;;;;;;;4.10;2.73;;;;;;;;;;6224712;28;20355;-74
2023/06/04 16:12:29;;;;;;;2.33;2.13;;;;;;;;;;6233034;28;20060;-73
2023/06/04 16:15:29;;;;;;;4.73;2.23;;;;;;;;;;6226672;28;20041;-73
2023/06/04 16:18:29;;;;;;;2.33;1.97;;;;;;;;;;6229937;28;20285;-73
2023/06/04 16:21:30;;;;;;;2.50;2.13;;;;;;;;;;6232397;28;20279;-74
2023/06/04 16:24:30;;;;;;;2.22;2.03;;;;;;;;;;6230101;28;20298;-72
2023/06/04 16:27:31;;;;;;;2.63;2.00;;;;;;;;;;6225637;28;20037;-70
2023/06/04 16:30:31;;;;;;;4.43;2.28;;;;;;;;;;6227374;28;20022;-75
2023/06/04 16:33:32;;;;;;;3.43;2.20;;;;;;;;;;6224425;28;20148;-74
2023/06/04 16:36:33;;;;;;;2.35;1.92;;;;;;;;;;6222178;28;20272;-75
2023/06/04 16:39:33;;;;;;;2.42;1.98;;;;;;;;;;6227425;28;20482;-73
2023/06/04 16:42:34;;;;;;;2.63;2.13;;;;;;;;;;6223612;28;20079;-76
2023/06/04 16:45:34;;;;;;;5.45;2.40;;;;;;;;;;6230103;28;20485;-73
2023/06/04 16:48:34;;;;;;;3.58;2.53;;;;;;;;;;6224619;28;20033;-73
2023/06/04 16:51:37;;;;;;;2.80;2.55;;;;;;;;;;6222344;28;20402;-74
2023/06/04 16:54:38;;;;;;;3.55;2.53;;;;;;;;;;6223343;28;20096;-74
2023/06/04 16:57:38;;;;;;;3.80;2.13;;;;;;;;;;6222726;28;20105;-73
2023/06/04 17:00:38;;;;;;;2.42;2.10;;;;;;;;;;6229297;28;20415;-74
2023/06/04 17:03:39;;;;;;;2.93;2.13;;;;;;;;;;6221330;28;20415;-73
2023/06/04 17:06:39;;;;;;;2.40;2.20;;;;;;;;;;6230217;28;20641;-73
2023/06/04 17:09:39;;;;;;;3.85;2.60;;;;;;;;;;6231659;28;20479;-73
2023/06/04 17:12:39;;;;;;;3.05;2.22;;;;;;;;;;6226941;28;20047;-75
2023/06/04 17:15:40;;;;;;;3.08;2.13;;;;;;;;;;6232250;28;20025;-75
2023/06/04 17:18:40;;;;;;;2.60;2.13;;;;;;;;;;6228329;28;20072;-76
2023/06/04 17:21:40;;;;;;;3.05;2.08;;;;;;;;;;6222984;28;20284;-75
2023/06/04 17:24:40;;;;;;;3.47;1.93;;;;;;;;;;6225247;28;20036;-75
2023/06/04 17:27:41;;;;;;;3.00;2.17;;;;;;;;;;6222473;28;20056;-72
2023/06/04 17:30:41;;;;;;;4.00;2.63;;;;;;;;;;6222980;28;20366;-73
2023/06/04 17:33:41;;;;;;;2.80;2.33;;;;;;;;;;6221660;28;20282;-75
2023/06/04 17:36:43;;;;;;;4.57;2.37;;;;;;;;;;6221294;28;20060;-75
2023/06/04 17:39:44;;;;;;;4.35;2.78;;;;;;;;;;6232608;28;20372;-75
2023/06/04 17:42:46;;;;;;;;;;;;;;;;;;6236062;28;20399;-72
2023/06/04 17:45:46;;;;;;;3.42;2.10;;;;;;;;;;6238469;28;19977;-72
2023/06/04 17:48:46;;;;;;;;;;;;;;;;;;6222884;28;20029;-72
2023/06/04 17:51:47;;;;;;;4.18;2.10;;;;;;;;;;6226295;28;20343;-72
2023/06/04 17:54:48;;;;;;;;;;;;;;;;;;6232200;28;20014;-74
2023/06/04 17:57:48;;;;;;;2.95;2.05;;;;;;;;;;6228946;28;20020;-74
2023/06/04 18:00:49;;;;;;;5.23;2.50;;;;;;;;;;6224062;28;20033;-74
2023/06/04 18:03:49;;;;;;;;;;;;;;;;;;6236115;28;20273;-75
2023/06/04 18:06:50;;;;;;;3.73;2.37;;;;;;;;;;6253296;28;19909;-75
2023/06/04 18:09:50;;;;;;;;;;;;;;;;;;6256586;28;20561;-74